sensor_id;sensor_type;location;lat;lon;timestamp;P1;durP1;ratioP1;P2;durP2;ratioP2
38909;SDS011;24676;51.360;12.354;2022-08-19T04:02:23;13.75;;;8.73;;
38909;SDS011;24676;51.360;12.354;2022-08-19T04:05:08;11.80;;;8.43;;
38909;SDS011;24676;51.360;12.354;2022-08-19T04:07:53;11.88;;;8.07;;
38909;SDS011;24676;51.360;12.354;2022-08-19T04:10:37;10.88;;;8.00;;
38909;SDS011;24676;51.360;12.354;2022-08-19T04:13:21;14.35;;;9.13;;
38909;SDS011;24676;51.360;12.354;2022-08-19T04:16:06;14.23;;;8.52;;
38909;SDS011;24676;51.360;12.354;2022-08-19T04:18:50;13.43;;;8.15;;
38909;SDS011;24676;51.360;12.354;2022-08-19T04:21:35;14.13;;;8.30;;
38909;SDS011;24676;51.360;12.354;2022-08-19T04:24:19;13.57;;;9.75;;
38909;SDS011;24676;51.360;12.354;2022-08-19T04:27:05;21.45;;;11.73;;
38909;SDS011;24676;51.360;12.354;2022-08-19T04:29:49;16.50;;;10.32;;
38909;SDS011;24676;51.360;12.354;2022-08-19T04:32:33;16.08;;;8.80;;
38909;SDS011;24676;51.360;12.354;2022-08-19T04:35:19;16.27;;;9.23;;
38909;SDS011;24676;51.360;12.354;2022-08-19T04:38:02;14.55;;;9.48;;
38909;SDS011;24676;51.360;12.354;2022-08-19T04:40:47;16.25;;;10.95;;
38909;SDS011;24676;51.360;12.354;2022-08-19T04:43:52;15.85;;;10.20;;
38909;SDS011;24676;51.360;12.354;2022-08-19T04:46:37;18.42;;;10.82;;
38909;SDS011;24676;51.360;12.354;2022-08-19T04:49:22;22.58;;;12.80;;
38909;SDS011;24676;51.360;12.354;2022-08-19T04:52:07;17.60;;;10.68;;
38909;SDS011;24676;51.360;12.354;2022-08-19T04:54:52;24.45;;;13.82;;
38909;SDS011;24676;51.360;12.354;2022-08-19T04:57:36;15.75;;;11.85;;
38909;SDS011;24676;51.360;12.354;2022-08-19T05:00:23;21.23;;;12.50;;
38909;SDS011;24676;51.360;12.354;2022-08-19T05:03:07;21.30;;;12.57;;
38909;SDS011;24676;51.360;12.354;2022-08-19T05:05:52;17.58;;;11.55;;
38909;SDS011;24676;51.360;12.354;2022-08-19T05:08:36;21.98;;;13.40;;
38909;SDS011;24676;51.360;12.354;2022-08-19T05:11:26;21.63;;;13.35;;
38909;SDS011;24676;51.360;12.354;2022-08-19T05:14:12;22.30;;;13.63;;
38909;SDS011;24676;51.360;12.354;2022-08-19T05:16:56;23.38;;;12.77;;
38909;SDS011;24676;51.360;12.354;2022-08-19T05:19:40;21.67;;;12.15;;
38909;SDS011;24676;51.360;12.354;2022-08-19T05:22:50;20.40;;;13.23;;
38909;SDS011;24676;51.360;12.354;2022-08-19T05:25:39;22.35;;;14.48;;
38909;SDS011;24676;51.360;12.354;2022-08-19T05:28:23;22.70;;;13.30;;
38909;SDS011;24676;51.360;12.354;2022-08-19T05:31:08;23.02;;;13.15;;
38909;SDS011;24676;51.360;12.354;2022-08-19T05:33:52;23.75;;;15.45;;
38909;SDS011;24676;51.360;12.354;2022-08-19T05:36:38;21.50;;;13.85;;
38909;SDS011;24676;51.360;12.354;2022-08-19T05:39:25;22.92;;;14.48;;
38909;SDS011;24676;51.360;12.354;2022-08-19T05:42:12;21.83;;;14.00;;
38909;SDS011;24676;51.360;12.354;2022-08-19T05:44:56;22.25;;;13.15;;
38909;SDS011;24676;51.360;12.354;2022-08-19T05:47:41;24.05;;;15.20;;
38909;SDS011;24676;51.360;12.354;2022-08-19T05:50:25;20.05;;;11.60;;
38909;SDS011;24676;51.360;12.354;2022-08-19T05:53:09;24.15;;;13.75;;
38909;SDS011;24676;51.360;12.354;2022-08-19T05:55:54;26.33;;;16.83;;
38909;SDS011;24676;51.360;12.354;2022-08-19T05:58:38;23.15;;;15.50;;
38909;SDS011;24676;51.360;12.354;2022-08-19T06:01:22;35.53;;;16.73;;
38909;SDS011;24676;51.360;12.354;2022-08-19T06:04:07;21.10;;;12.95;;
38909;SDS011;24676;51.360;12.354;2022-08-19T06:06:52;23.83;;;14.18;;
38909;SDS011;24676;51.360;12.354;2022-08-19T06:09:37;23.15;;;14.82;;
38909;SDS011;24676;51.360;12.354;2022-08-19T06:12:21;20.05;;;14.68;;
38909;SDS011;24676;51.360;12.354;2022-08-19T06:15:12;34.33;;;16.30;;
38909;SDS011;24676;51.360;12.354;2022-08-19T06:17:57;23.95;;;15.07;;
38909;SDS011;24676;51.360;12.354;2022-08-19T06:20:41;19.83;;;12.82;;
38909;SDS011;24676;51.360;12.354;2022-08-19T06:23:25;23.23;;;13.13;;
38909;SDS011;24676;51.360;12.354;2022-08-19T06:26:13;29.27;;;16.10;;
38909;SDS011;24676;51.360;12.354;2022-08-19T06:28:59;24.30;;;15.45;;
38909;SDS011;24676;51.360;12.354;2022-08-19T06:31:44;24.98;;;13.57;;
38909;SDS011;24676;51.360;12.354;2022-08-19T06:34:31;26.67;;;14.63;;
38909;SDS011;24676;51.360;12.354;2022-08-19T06:37:17;22.40;;;15.05;;
38909;SDS011;24676;51.360;12.354;2022-08-19T06:40:01;24.85;;;14.70;;
38909;SDS011;24676;51.360;12.354;2022-08-19T06:42:46;23.38;;;14.68;;
38909;SDS011;24676;51.360;12.354;2022-08-19T06:45:30;30.83;;;14.85;;
38909;SDS011;24676;51.360;12.354;2022-08-19T06:48:15;26.63;;;14.30;;
38909;SDS011;24676;51.360;12.354;2022-08-19T06:50:59;24.30;;;14.77;;
38909;SDS011;24676;51.360;12.354;2022-08-19T06:53:44;22.83;;;13.88;;
38909;SDS011;24676;51.360;12.354;2022-08-19T06:56:30;30.75;;;15.35;;
38909;SDS011;24676;51.360;12.354;2022-08-19T06:59:19;24.30;;;13.68;;
38909;SDS011;24676;51.360;12.354;2022-08-19T07:02:05;23.42;;;13.27;;
38909;SDS011;24676;51.360;12.354;2022-08-19T07:04:50;24.75;;;13.68;;
38909;SDS011;24676;51.360;12.354;2022-08-19T07:07:35;21.98;;;14.40;;
38909;SDS011;24676;51.360;12.354;2022-08-19T07:10:19;23.60;;;13.38;;
38909;SDS011;24676;51.360;12.354;2022-08-19T07:13:03;28.38;;;16.85;;
38909;SDS011;24676;51.360;12.354;2022-08-19T07:15:49;25.70;;;13.30;;
38909;SDS011;24676;51.360;12.354;2022-08-19T07:18:34;23.85;;;12.73;;
38909;SDS011;24676;51.360;12.354;2022-08-19T07:21:21;21.58;;;11.85;;
38909;SDS011;24676;51.360;12.354;2022-08-19T07:24:07;21.42;;;13.30;;
38909;SDS011;24676;51.360;12.354;2022-08-19T07:26:53;21.00;;;15.15;;
38909;SDS011;24676;51.360;12.354;2022-08-19T07:29:40;19.58;;;14.00;;
38909;SDS011;24676;51.360;12.354;2022-08-19T07:32:24;24.10;;;13.75;;
38909;SDS011;24676;51.360;12.354;2022-08-19T07:35:12;23.10;;;12.48;;
38909;SDS011;24676;51.360;12.354;2022-08-19T07:37:57;36.03;;;13.00;;
38909;SDS011;24676;51.360;12.354;2022-08-19T07:40:41;25.65;;;13.05;;
38909;SDS011;24676;51.360;12.354;2022-08-19T07:43:27;18.25;;;11.68;;
38909;SDS011;24676;51.360;12.354;2022-08-19T07:46:12;19.45;;;12.45;;
38909;SDS011;24676;51.360;12.354;2022-08-19T07:48:57;24.92;;;12.63;;
38909;SDS011;24676;51.360;12.354;2022-08-19T07:51:42;25.73;;;10.70;;
38909;SDS011;24676;51.360;12.354;2022-08-19T07:54:27;21.10;;;12.77;;
38909;SDS011;24676;51.360;12.354;2022-08-19T07:57:13;23.25;;;12.65;;
38909;SDS011;24676;51.360;12.354;2022-08-19T07:59:58;16.92;;;10.07;;
38909;SDS011;24676;51.360;12.354;2022-08-19T08:02:42;20.73;;;11.70;;
38909;SDS011;24676;51.360;12.354;2022-08-19T08:05:27;18.85;;;11.68;;
38909;SDS011;24676;51.360;12.354;2022-08-19T08:08:30;16.27;;;11.57;;
38909;SDS011;24676;51.360;12.354;2022-08-19T08:11:32;19.20;;;12.18;;
38909;SDS011;24676;51.360;12.354;2022-08-19T08:14:18;25.17;;;11.95;;
38909;SDS011;24676;51.360;12.354;2022-08-19T08:17:06;21.20;;;12.25;;
38909;SDS011;24676;51.360;12.354;2022-08-19T08:19:50;16.65;;;11.38;;
38909;SDS011;24676;51.360;12.354;2022-08-19T08:22:34;16.70;;;10.98;;
38909;SDS011;24676;51.360;12.354;2022-08-19T08:25:39;22.73;;;12.05;;
38909;SDS011;24676;51.360;12.354;2022-08-19T08:28:25;16.70;;;10.93;;
38909;SDS011;24676;51.360;12.354;2022-08-19T08:31:11;18.63;;;10.32;;
38909;SDS011;24676;51.360;12.354;2022-08-19T08:33:55;16.15;;;10.68;;
38909;SDS011;24676;51.360;12.354;2022-08-19T08:36:41;14.10;;;9.35;;
38909;SDS011;24676;51.360;12.354;2022-08-19T08:39:28;17.02;;;10.88;;
38909;SDS011;24676;51.360;12.354;2022-08-19T08:42:24;17.92;;;11.90;;
38909;SDS011;24676;51.360;12.354;2022-08-19T08:45:14;17.48;;;12.02;;
38909;SDS011;24676;51.360;12.354;2022-08-19T08:48:02;17.05;;;10.18;;
38909;SDS011;24676;51.360;12.354;2022-08-19T08:51:03;17.42;;;10.80;;
38909;SDS011;24676;51.360;12.354;2022-08-19T08:56:40;16.27;;;9.95;;
38909;SDS011;24676;51.360;12.354;2022-08-19T08:59:28;17.60;;;11.48;;
38909;SDS011;24676;51.360;12.354;2022-08-19T09:02:16;18.42;;;10.85;;
38909;SDS011;24676;51.360;12.354;2022-08-19T09:05:02;15.05;;;9.90;;
38909;SDS011;24676;51.360;12.354;2022-08-19T09:08:04;14.07;;;10.48;;
38909;SDS011;24676;51.360;12.354;2022-08-19T09:10:53;14.40;;;11.07;;
38909;SDS011;24676;51.360;12.354;2022-08-19T09:16:51;15.20;;;9.95;;
38909;SDS011;24676;51.360;12.354;2022-08-19T09:19:36;16.00;;;10.45;;
38909;SDS011;24676;51.360;12.354;2022-08-19T09:22:39;21.17;;;10.95;;
38909;SDS011;24676;51.360;12.354;2022-08-19T09:25:24;16.77;;;9.13;;
38909;SDS011;24676;51.360;12.354;2022-08-19T09:28:08;13.13;;;8.98;;
38909;SDS011;24676;51.360;12.354;2022-08-19T09:30:53;16.38;;;9.40;;
38909;SDS011;24676;51.360;12.354;2022-08-19T09:33:38;16.00;;;11.38;;
38909;SDS011;24676;51.360;12.354;2022-08-19T09:36:23;18.77;;;9.90;;
38909;SDS011;24676;51.360;12.354;2022-08-19T09:39:09;23.30;;;12.60;;
38909;SDS011;24676;51.360;12.354;2022-08-19T09:41:53;17.30;;;11.07;;
38909;SDS011;24676;51.360;12.354;2022-08-19T09:44:38;19.27;;;10.45;;
38909;SDS011;24676;51.360;12.354;2022-08-19T09:47:23;17.40;;;11.05;;
38909;SDS011;24676;51.360;12.354;2022-08-19T09:50:08;13.88;;;9.80;;
38909;SDS011;24676;51.360;12.354;2022-08-19T09:52:54;14.18;;;9.50;;
38909;SDS011;24676;51.360;12.354;2022-08-19T09:55:44;17.23;;;11.10;;
38909;SDS011;24676;51.360;12.354;2022-08-19T09:58:28;22.73;;;9.20;;
38909;SDS011;24676;51.360;12.354;2022-08-19T10:01:18;12.52;;;8.23;;
38909;SDS011;24676;51.360;12.354;2022-08-19T10:04:06;12.82;;;8.98;;
38909;SDS011;24676;51.360;12.354;2022-08-19T10:06:55;15.25;;;9.63;;
38909;SDS011;24676;51.360;12.354;2022-08-19T10:09:40;15.45;;;8.52;;
38909;SDS011;24676;51.360;12.354;2022-08-19T10:12:24;13.63;;;9.52;;
38909;SDS011;24676;51.360;12.354;2022-08-19T10:15:09;10.88;;;7.07;;
38909;SDS011;24676;51.360;12.354;2022-08-19T10:17:53;13.20;;;7.75;;
38909;SDS011;24676;51.360;12.354;2022-08-19T10:20:37;11.05;;;7.63;;
38909;SDS011;24676;51.360;12.354;2022-08-19T10:23:22;12.20;;;7.28;;
38909;SDS011;24676;51.360;12.354;2022-08-19T10:26:06;12.80;;;7.65;;
38909;SDS011;24676;51.360;12.354;2022-08-19T10:28:51;10.50;;;6.65;;
38909;SDS011;24676;51.360;12.354;2022-08-19T10:31:36;10.85;;;7.07;;
38909;SDS011;24676;51.360;12.354;2022-08-19T10:34:21;10.05;;;6.80;;
38909;SDS011;24676;51.360;12.354;2022-08-19T10:37:06;25.48;;;9.23;;
38909;SDS011;24676;51.360;12.354;2022-08-19T10:39:51;9.07;;;7.00;;
38909;SDS011;24676;51.360;12.354;2022-08-19T10:42:35;9.52;;;6.13;;
38909;SDS011;24676;51.360;12.354;2022-08-19T10:45:20;11.52;;;7.53;;
38909;SDS011;24676;51.360;12.354;2022-08-19T10:48:06;14.25;;;6.43;;
38909;SDS011;24676;51.360;12.354;2022-08-19T10:50:51;8.40;;;4.95;;
38909;SDS011;24676;51.360;12.354;2022-08-19T10:53:54;7.88;;;6.53;;
38909;SDS011;24676;51.360;12.354;2022-08-19T10:56:39;8.18;;;6.30;;
38909;SDS011;24676;51.360;12.354;2022-08-19T10:59:36;9.98;;;5.95;;
38909;SDS011;24676;51.360;12.354;2022-08-19T11:02:21;7.50;;;5.88;;
38909;SDS011;24676;51.360;12.354;2022-08-19T11:05:05;9.77;;;6.68;;
38909;SDS011;24676;51.360;12.354;2022-08-19T11:07:50;8.13;;;5.55;;
38909;SDS011;24676;51.360;12.354;2022-08-19T11:10:35;13.00;;;5.10;;
38909;SDS011;24676;51.360;12.354;2022-08-19T11:13:20;9.32;;;6.13;;
38909;SDS011;24676;51.360;12.354;2022-08-19T11:16:06;8.27;;;5.10;;
38909;SDS011;24676;51.360;12.354;2022-08-19T11:18:57;10.98;;;6.20;;
38909;SDS011;24676;51.360;12.354;2022-08-19T11:21:43;8.10;;;3.63;;
38909;SDS011;24676;51.360;12.354;2022-08-19T11:24:29;7.30;;;5.32;;
38909;SDS011;24676;51.360;12.354;2022-08-19T11:27:14;7.72;;;4.63;;
38909;SDS011;24676;51.360;12.354;2022-08-19T11:29:59;7.43;;;4.57;;
38909;SDS011;24676;51.360;12.354;2022-08-19T11:32:44;5.80;;;3.70;;
38909;SDS011;24676;51.360;12.354;2022-08-19T11:35:28;6.35;;;5.70;;
38909;SDS011;24676;51.360;12.354;2022-08-19T11:38:13;6.18;;;4.45;;
38909;SDS011;24676;51.360;12.354;2022-08-19T11:40:59;7.18;;;4.95;;
38909;SDS011;24676;51.360;12.354;2022-08-19T11:43:45;8.18;;;4.55;;
38909;SDS011;24676;51.360;12.354;2022-08-19T11:46:33;10.20;;;4.57;;
38909;SDS011;24676;51.360;12.354;2022-08-19T11:49:19;6.45;;;4.43;;
38909;SDS011;24676;51.360;12.354;2022-08-19T11:52:04;6.28;;;5.07;;
38909;SDS011;24676;51.360;12.354;2022-08-19T11:54:49;4.72;;;4.32;;
38909;SDS011;24676;51.360;12.354;2022-08-19T11:57:33;7.78;;;5.05;;
38909;SDS011;24676;51.360;12.354;2022-08-19T12:00:17;5.25;;;4.03;;
38909;SDS011;24676;51.360;12.354;2022-08-19T12:03:02;4.97;;;4.55;;
38909;SDS011;24676;51.360;12.354;2022-08-19T12:05:46;7.13;;;5.20;;
38909;SDS011;24676;51.360;12.354;2022-08-19T12:08:31;8.90;;;5.00;;
38909;SDS011;24676;51.360;12.354;2022-08-19T12:11:15;7.32;;;4.10;;
38909;SDS011;24676;51.360;12.354;2022-08-19T12:14:00;5.10;;;3.97;;
38909;SDS011;24676;51.360;12.354;2022-08-19T12:16:45;8.77;;;5.32;;
38909;SDS011;24676;51.360;12.354;2022-08-19T12:19:29;6.40;;;4.45;;
38909;SDS011;24676;51.360;12.354;2022-08-19T12:22:13;5.68;;;4.03;;
38909;SDS011;24676;51.360;12.354;2022-08-19T12:24:58;7.18;;;4.57;;
38909;SDS011;24676;51.360;12.354;2022-08-19T12:27:42;6.22;;;3.85;;
38909;SDS011;24676;51.360;12.354;2022-08-19T12:30:26;5.28;;;4.22;;
38909;SDS011;24676;51.360;12.354;2022-08-19T12:33:10;3.83;;;3.35;;
38909;SDS011;24676;51.360;12.354;2022-08-19T12:36:01;3.47;;;3.17;;
38909;SDS011;24676;51.360;12.354;2022-08-19T12:38:48;7.10;;;5.88;;
38909;SDS011;24676;51.360;12.354;2022-08-19T12:41:32;7.63;;;5.05;;
38909;SDS011;24676;51.360;12.354;2022-08-19T12:44:17;5.57;;;3.83;;
38909;SDS011;24676;51.360;12.354;2022-08-19T12:47:05;7.75;;;4.65;;
38909;SDS011;24676;51.360;12.354;2022-08-19T12:49:50;6.53;;;5.25;;
38909;SDS011;24676;51.360;12.354;2022-08-19T12:52:36;7.13;;;5.22;;
38909;SDS011;24676;51.360;12.354;2022-08-19T12:55:20;7.13;;;5.32;;
38909;SDS011;24676;51.360;12.354;2022-08-19T12:58:05;9.48;;;5.32;;
38909;SDS011;24676;51.360;12.354;2022-08-19T13:00:49;7.00;;;5.38;;
38909;SDS011;24676;51.360;12.354;2022-08-19T13:03:33;5.88;;;3.50;;
38909;SDS011;24676;51.360;12.354;2022-08-19T13:06:18;5.93;;;4.05;;
38909;SDS011;24676;51.360;12.354;2022-08-19T13:09:03;5.40;;;4.80;;
38909;SDS011;24676;51.360;12.354;2022-08-19T13:11:47;6.93;;;4.85;;
38909;SDS011;24676;51.360;12.354;2022-08-19T13:14:33;5.10;;;4.18;;
38909;SDS011;24676;51.360;12.354;2022-08-19T13:17:18;7.57;;;5.53;;
38909;SDS011;24676;51.360;12.354;2022-08-19T13:20:03;8.82;;;5.65;;
38909;SDS011;24676;51.360;12.354;2022-08-19T13:22:50;6.72;;;4.75;;
38909;SDS011;24676;51.360;12.354;2022-08-19T13:25:35;9.63;;;5.30;;
38909;SDS011;24676;51.360;12.354;2022-08-19T13:28:19;7.95;;;5.53;;
38909;SDS011;24676;51.360;12.354;2022-08-19T13:31:04;11.38;;;6.15;;
38909;SDS011;24676;51.360;12.354;2022-08-19T13:34:07;7.15;;;5.30;;
38909;SDS011;24676;51.360;12.354;2022-08-19T13:36:52;7.63;;;5.50;;
38909;SDS011;24676;51.360;12.354;2022-08-19T13:56:11;9.85;;;6.10;;
38909;SDS011;24676;51.360;12.354;2022-08-19T13:58:57;7.57;;;5.72;;
38909;SDS011;24676;51.360;12.354;2022-08-19T14:01:41;6.88;;;5.22;;
38909;SDS011;24676;51.360;12.354;2022-08-19T14:07:09;6.70;;;4.60;;
38909;SDS011;24676;51.360;12.354;2022-08-19T14:09:53;9.55;;;4.60;;
38909;SDS011;24676;51.360;12.354;2022-08-19T14:12:37;9.10;;;5.40;;
38909;SDS011;24676;51.360;12.354;2022-08-19T14:18:07;4.93;;;3.93;;
38909;SDS011;24676;51.360;12.354;2022-08-19T14:20:52;6.55;;;4.30;;
38909;SDS011;24676;51.360;12.354;2022-08-19T14:23:37;6.07;;;4.53;;
38909;SDS011;24676;51.360;12.354;2022-08-19T14:26:21;6.00;;;4.10;;
38909;SDS011;24676;51.360;12.354;2022-08-19T14:29:06;7.40;;;4.30;;
38909;SDS011;24676;51.360;12.354;2022-08-19T14:31:50;4.45;;;4.05;;
38909;SDS011;24676;51.360;12.354;2022-08-19T14:37:21;4.95;;;3.80;;
38909;SDS011;24676;51.360;12.354;2022-08-19T14:40:05;6.25;;;3.70;;
38909;SDS011;24676;51.360;12.354;2022-08-19T14:42:50;5.00;;;4.35;;
38909;SDS011;24676;51.360;12.354;2022-08-19T14:45:47;6.90;;;4.30;;
38909;SDS011;24676;51.360;12.354;2022-08-19T14:48:31;7.70;;;4.50;;
38909;SDS011;24676;51.360;12.354;2022-08-19T14:51:16;5.70;;;3.70;;
38909;SDS011;24676;51.360;12.354;2022-08-19T14:56:46;4.00;;;2.90;;
38909;SDS011;24676;51.360;12.354;2022-08-19T15:04:59;6.40;;;4.10;;
38909;SDS011;24676;51.360;12.354;2022-08-19T15:07:44;8.50;;;3.60;;
38909;SDS011;24676;51.360;12.354;2022-08-19T15:10:28;6.45;;;4.50;;
38909;SDS011;24676;51.360;12.354;2022-08-19T15:13:13;3.50;;;2.90;;
38909;SDS011;24676;51.360;12.354;2022-08-19T15:15:57;6.90;;;4.30;;
38909;SDS011;24676;51.360;12.354;2022-08-19T15:29:41;9.18;;;6.65;;
38909;SDS011;24676;51.360;12.354;2022-08-19T15:32:25;9.05;;;5.80;;
38909;SDS011;24676;51.360;12.354;2022-08-19T15:35:11;8.60;;;5.93;;
38909;SDS011;24676;51.360;12.354;2022-08-19T15:37:55;11.13;;;6.00;;
38909;SDS011;24676;51.360;12.354;2022-08-19T15:40:40;8.68;;;5.82;;
38909;SDS011;24676;51.360;12.354;2022-08-19T15:43:25;8.35;;;5.22;;
38909;SDS011;24676;51.360;12.354;2022-08-19T15:46:10;7.50;;;5.70;;
38909;SDS011;24676;51.360;12.354;2022-08-19T15:48:55;8.65;;;5.68;;
38909;SDS011;24676;51.360;12.354;2022-08-19T15:51:40;9.00;;;6.32;;
38909;SDS011;24676;51.360;12.354;2022-08-19T15:54:26;8.18;;;5.53;;
38909;SDS011;24676;51.360;12.354;2022-08-19T15:57:10;8.80;;;5.45;;
38909;SDS011;24676;51.360;12.354;2022-08-19T16:00:10;9.52;;;5.82;;
38909;SDS011;24676;51.360;12.354;2022-08-19T16:03:13;8.52;;;5.22;;
38909;SDS011;24676;51.360;12.354;2022-08-19T16:06:16;8.23;;;5.53;;
38909;SDS011;24676;51.360;12.354;2022-08-19T16:09:10;8.30;;;6.20;;
38909;SDS011;24676;51.360;12.354;2022-08-19T16:11:55;10.55;;;6.35;;
38909;SDS011;24676;51.360;12.354;2022-08-19T16:14:44;10.93;;;7.05;;
38909;SDS011;24676;51.360;12.354;2022-08-19T16:17:30;9.68;;;6.00;;
38909;SDS011;24676;51.360;12.354;2022-08-19T16:20:14;9.93;;;7.25;;
38909;SDS011;24676;51.360;12.354;2022-08-19T16:23:02;14.00;;;6.40;;
38909;SDS011;24676;51.360;12.354;2022-08-19T16:25:47;7.60;;;5.20;;
38909;SDS011;24676;51.360;12.354;2022-08-19T16:28:32;10.35;;;6.68;;
38909;SDS011;24676;51.360;12.354;2022-08-19T16:31:16;9.65;;;5.25;;
38909;SDS011;24676;51.360;12.354;2022-08-19T16:34:00;13.98;;;7.18;;
38909;SDS011;24676;51.360;12.354;2022-08-19T16:36:44;8.57;;;6.03;;
38909;SDS011;24676;51.360;12.354;2022-08-19T16:39:29;8.93;;;5.90;;
38909;SDS011;24676;51.360;12.354;2022-08-19T16:42:13;12.15;;;7.30;;
38909;SDS011;24676;51.360;12.354;2022-08-19T16:44:57;9.45;;;6.20;;
38909;SDS011;24676;51.360;12.354;2022-08-19T16:47:42;5.95;;;4.70;;
38909;SDS011;24676;51.360;12.354;2022-08-19T16:50:26;8.15;;;5.80;;
38909;SDS011;24676;51.360;12.354;2022-08-19T16:53:10;9.52;;;6.15;;
38909;SDS011;24676;51.360;12.354;2022-08-19T16:55:55;7.55;;;5.40;;
38909;SDS011;24676;51.360;12.354;2022-08-19T16:58:39;11.80;;;6.60;;
38909;SDS011;24676;51.360;12.354;2022-08-19T17:01:25;7.53;;;5.63;;
38909;SDS011;24676;51.360;12.354;2022-08-19T17:04:10;7.45;;;5.15;;
38909;SDS011;24676;51.360;12.354;2022-08-19T17:06:56;8.90;;;5.20;;
38909;SDS011;24676;51.360;12.354;2022-08-19T17:09:40;8.38;;;5.90;;
38909;SDS011;24676;51.360;12.354;2022-08-19T17:15:09;5.85;;;5.07;;
38909;SDS011;24676;51.360;12.354;2022-08-19T17:17:57;8.70;;;5.32;;
38909;SDS011;24676;51.360;12.354;2022-08-19T17:20:42;9.93;;;6.18;;
38909;SDS011;24676;51.360;12.354;2022-08-19T17:23:29;10.88;;;5.55;;
38909;SDS011;24676;51.360;12.354;2022-08-19T17:26:14;9.93;;;5.97;;
38909;SDS011;24676;51.360;12.354;2022-08-19T17:29:00;8.82;;;6.32;;
38909;SDS011;24676;51.360;12.354;2022-08-19T17:31:44;8.32;;;5.35;;
38909;SDS011;24676;51.360;12.354;2022-08-19T17:34:28;7.40;;;5.70;;
38909;SDS011;24676;51.360;12.354;2022-08-19T18:37:40;7.00;;;6.00;;
38909;SDS011;24676;51.360;12.354;2022-08-19T18:40:26;8.50;;;5.80;;
38909;SDS011;24676;51.360;12.354;2022-08-19T18:43:30;9.70;;;6.50;;
38909;SDS011;24676;51.360;12.354;2022-08-19T18:46:33;9.10;;;6.20;;
38909;SDS011;24676;51.360;12.354;2022-08-19T18:49:36;9.40;;;6.65;;
38909;SDS011;24676;51.360;12.354;2022-08-19T18:52:20;9.95;;;6.00;;
38909;SDS011;24676;51.360;12.354;2022-08-19T19:06:06;8.30;;;5.50;;
38909;SDS011;24676;51.360;12.354;2022-08-19T19:08:51;19.05;;;8.10;;
38909;SDS011;24676;51.360;12.354;2022-08-19T19:11:38;7.00;;;5.80;;
38909;SDS011;24676;51.360;12.354;2022-08-19T19:30:56;6.35;;;5.20;;
38909;SDS011;24676;51.360;12.354;2022-08-19T19:41:53;9.00;;;5.40;;
38909;SDS011;24676;51.360;12.354;2022-08-19T19:44:38;7.80;;;5.50;;
38909;SDS011;24676;51.360;12.354;2022-08-19T20:47:54;8.20;;;6.55;;
38909;SDS011;24676;51.360;12.354;2022-08-19T20:50:38;9.00;;;6.75;;
38909;SDS011;24676;51.360;12.354;2022-08-19T20:53:23;9.80;;;7.03;;
38909;SDS011;24676;51.360;12.354;2022-08-19T20:56:09;9.20;;;6.20;;
38909;SDS011;24676;51.360;12.354;2022-08-19T20:58:54;10.55;;;7.65;;
